sensor_id;sensor_type;location;lat;lon;timestamp;P1;durP1;ratioP1;P2;durP2;ratioP2
20306;SDS011;10312;52.434;13.206;2022-10-29T00:00:50;10.20;;;4.47;;
20306;SDS011;10312;52.434;13.206;2022-10-29T00:03:18;11.65;;;4.10;;
20306;SDS011;10312;52.434;13.206;2022-10-29T00:08:41;12.10;;;4.38;;
20306;SDS011;10312;52.434;13.206;2022-10-29T00:11:09;11.15;;;4.53;;
20306;SDS011;10312;52.434;13.206;2022-10-29T00:13:38;9.10;;;4.50;;
20306;SDS011;10312;52.434;13.206;2022-10-29T00:16:12;10.38;;;4.75;;
20306;SDS011;10312;52.434;13.206;2022-10-29T00:18:42;16.73;;;4.03;;
20306;SDS011;10312;52.434;13.206;2022-10-29T00:21:10;14.88;;;4.35;;
20306;SDS011;10312;52.434;13.206;2022-10-29T00:23:38;11.73;;;4.78;;
20306;SDS011;10312;52.434;13.206;2022-10-29T00:26:05;10.07;;;4.43;;
20306;SDS011;10312;52.434;13.206;2022-10-29T00:28:32;12.25;;;4.85;;
20306;SDS011;10312;52.434;13.206;2022-10-29T00:31:06;9.82;;;4.10;;
20306;SDS011;10312;52.434;13.206;2022-10-29T00:33:37;10.63;;;4.78;;
20306;SDS011;10312;52.434;13.206;2022-10-29T00:38:37;12.93;;;4.70;;
20306;SDS011;10312;52.434;13.206;2022-10-29T00:41:04;13.32;;;4.50;;
20306;SDS011;10312;52.434;13.206;2022-10-29T00:43:32;16.60;;;4.97;;
20306;SDS011;10312;52.434;13.206;2022-10-29T00:46:04;11.60;;;4.63;;
20306;SDS011;10312;52.434;13.206;2022-10-29T00:48:34;14.27;;;4.47;;
20306;SDS011;10312;52.434;13.206;2022-10-29T00:51:02;14.35;;;4.90;;
20306;SDS011;10312;52.434;13.206;2022-10-29T00:53:31;13.93;;;4.10;;
20306;SDS011;10312;52.434;13.206;2022-10-29T00:56:00;13.10;;;4.40;;
20306;SDS011;10312;52.434;13.206;2022-10-29T00:58:27;19.80;;;4.75;;
20306;SDS011;10312;52.434;13.206;2022-10-29T01:00:54;18.23;;;4.28;;
20306;SDS011;10312;52.434;13.206;2022-10-29T01:03:20;15.32;;;5.15;;
20306;SDS011;10312;52.434;13.206;2022-10-29T01:05:47;10.38;;;4.72;;
20306;SDS011;10312;52.434;13.206;2022-10-29T01:08:14;11.35;;;4.35;;
20306;SDS011;10312;52.434;13.206;2022-10-29T01:24:19;14.63;;;4.68;;
20306;SDS011;10312;52.434;13.206;2022-10-29T01:29:40;12.55;;;4.35;;
20306;SDS011;10312;52.434;13.206;2022-10-29T01:33:02;10.63;;;3.95;;
20306;SDS011;10312;52.434;13.206;2022-10-29T01:35:28;8.68;;;3.92;;
20306;SDS011;10312;52.434;13.206;2022-10-29T01:40:57;12.27;;;4.03;;
20306;SDS011;10312;52.434;13.206;2022-10-29T01:43:45;12.98;;;4.38;;
20306;SDS011;10312;52.434;13.206;2022-10-29T01:48:49;17.30;;;4.72;;
20306;SDS011;10312;52.434;13.206;2022-10-29T01:51:19;16.08;;;5.38;;
20306;SDS011;10312;52.434;13.206;2022-10-29T01:53:47;15.43;;;4.55;;
20306;SDS011;10312;52.434;13.206;2022-10-29T01:56:14;13.25;;;4.68;;
20306;SDS011;10312;52.434;13.206;2022-10-29T01:58:42;12.88;;;4.55;;
20306;SDS011;10312;52.434;13.206;2022-10-29T02:07:01;18.45;;;5.05;;
20306;SDS011;10312;52.434;13.206;2022-10-29T02:09:41;11.52;;;4.15;;
20306;SDS011;10312;52.434;13.206;2022-10-29T02:12:19;8.77;;;4.10;;
20306;SDS011;10312;52.434;13.206;2022-10-29T02:14:57;12.85;;;4.30;;
20306;SDS011;10312;52.434;13.206;2022-10-29T02:17:29;10.48;;;4.70;;
20306;SDS011;10312;52.434;13.206;2022-10-29T02:20:06;13.90;;;4.40;;
20306;SDS011;10312;52.434;13.206;2022-10-29T02:22:34;13.63;;;4.95;;
20306;SDS011;10312;52.434;13.206;2022-10-29T02:25:01;14.18;;;4.65;;
20306;SDS011;10312;52.434;13.206;2022-10-29T02:27:28;19.33;;;4.53;;
20306;SDS011;10312;52.434;13.206;2022-10-29T02:29:55;9.52;;;4.35;;
20306;SDS011;10312;52.434;13.206;2022-10-29T02:32:21;8.07;;;4.38;;
20306;SDS011;10312;52.434;13.206;2022-10-29T02:34:48;10.07;;;5.07;;
20306;SDS011;10312;52.434;13.206;2022-10-29T02:37:15;11.57;;;5.50;;
20306;SDS011;10312;52.434;13.206;2022-10-29T02:39:42;15.57;;;4.80;;
20306;SDS011;10312;52.434;13.206;2022-10-29T02:42:08;13.75;;;4.65;;
20306;SDS011;10312;52.434;13.206;2022-10-29T02:44:35;14.07;;;4.47;;
20306;SDS011;10312;52.434;13.206;2022-10-29T02:47:02;15.95;;;5.43;;
20306;SDS011;10312;52.434;13.206;2022-10-29T02:49:29;15.85;;;5.10;;
20306;SDS011;10312;52.434;13.206;2022-10-29T02:51:55;13.25;;;5.03;;
20306;SDS011;10312;52.434;13.206;2022-10-29T02:54:22;17.95;;;5.18;;
20306;SDS011;10312;52.434;13.206;2022-10-29T02:56:49;13.52;;;4.95;;
20306;SDS011;10312;52.434;13.206;2022-10-29T02:59:15;14.25;;;5.57;;
20306;SDS011;10312;52.434;13.206;2022-10-29T03:01:42;12.70;;;5.28;;
20306;SDS011;10312;52.434;13.206;2022-10-29T03:04:09;13.50;;;5.40;;
20306;SDS011;10312;52.434;13.206;2022-10-29T03:06:36;12.07;;;4.65;;
20306;SDS011;10312;52.434;13.206;2022-10-29T03:09:03;12.32;;;4.57;;
20306;SDS011;10312;52.434;13.206;2022-10-29T03:11:30;21.73;;;5.68;;
20306;SDS011;10312;52.434;13.206;2022-10-29T03:13:58;13.43;;;4.65;;
20306;SDS011;10312;52.434;13.206;2022-10-29T03:16:25;11.95;;;4.65;;
20306;SDS011;10312;52.434;13.206;2022-10-29T03:18:51;12.05;;;5.30;;
20306;SDS011;10312;52.434;13.206;2022-10-29T03:21:18;12.05;;;4.50;;
20306;SDS011;10312;52.434;13.206;2022-10-29T03:23:45;12.13;;;4.85;;
20306;SDS011;10312;52.434;13.206;2022-10-29T03:26:11;16.92;;;5.03;;
20306;SDS011;10312;52.434;13.206;2022-10-29T03:28:38;12.45;;;4.90;;
20306;SDS011;10312;52.434;13.206;2022-10-29T03:31:05;15.40;;;4.57;;
20306;SDS011;10312;52.434;13.206;2022-10-29T03:33:32;17.85;;;5.47;;
20306;SDS011;10312;52.434;13.206;2022-10-29T03:35:59;14.07;;;4.68;;
20306;SDS011;10312;52.434;13.206;2022-10-29T03:38:27;14.93;;;4.45;;
20306;SDS011;10312;52.434;13.206;2022-10-29T03:40:54;12.23;;;5.22;;
20306;SDS011;10312;52.434;13.206;2022-10-29T03:43:21;10.55;;;4.60;;
20306;SDS011;10312;52.434;13.206;2022-10-29T03:45:54;11.98;;;5.00;;
20306;SDS011;10312;52.434;13.206;2022-10-29T03:48:23;11.05;;;5.63;;
20306;SDS011;10312;52.434;13.206;2022-10-29T03:51:00;12.57;;;4.93;;
20306;SDS011;10312;52.434;13.206;2022-10-29T03:53:28;15.07;;;5.03;;
20306;SDS011;10312;52.434;13.206;2022-10-29T03:55:55;12.30;;;4.78;;
20306;SDS011;10312;52.434;13.206;2022-10-29T03:58:22;9.60;;;4.93;;
20306;SDS011;10312;52.434;13.206;2022-10-29T04:00:53;10.20;;;4.75;;
20306;SDS011;10312;52.434;13.206;2022-10-29T04:03:20;13.82;;;5.13;;
20306;SDS011;10312;52.434;13.206;2022-10-29T04:05:47;13.38;;;4.38;;
20306;SDS011;10312;52.434;13.206;2022-10-29T04:08:14;14.13;;;5.40;;
20306;SDS011;10312;52.434;13.206;2022-10-29T04:10:44;12.05;;;5.07;;
20306;SDS011;10312;52.434;13.206;2022-10-29T04:13:12;12.43;;;5.07;;
20306;SDS011;10312;52.434;13.206;2022-10-29T04:15:39;10.77;;;5.15;;
20306;SDS011;10312;52.434;13.206;2022-10-29T04:18:06;16.50;;;4.68;;
20306;SDS011;10312;52.434;13.206;2022-10-29T04:20:33;13.93;;;4.97;;
20306;SDS011;10312;52.434;13.206;2022-10-29T04:23:20;10.05;;;4.88;;
20306;SDS011;10312;52.434;13.206;2022-10-29T04:26:07;13.80;;;5.55;;
20306;SDS011;10312;52.434;13.206;2022-10-29T04:28:53;14.35;;;5.65;;
20306;SDS011;10312;52.434;13.206;2022-10-29T04:31:20;12.60;;;5.50;;
20306;SDS011;10312;52.434;13.206;2022-10-29T04:33:47;13.48;;;5.10;;
20306;SDS011;10312;52.434;13.206;2022-10-29T04:36:13;12.43;;;4.95;;
20306;SDS011;10312;52.434;13.206;2022-10-29T04:38:40;18.77;;;5.85;;
20306;SDS011;10312;52.434;13.206;2022-10-29T04:41:07;11.90;;;4.75;;
20306;SDS011;10312;52.434;13.206;2022-10-29T04:43:34;10.75;;;4.57;;
20306;SDS011;10312;52.434;13.206;2022-10-29T04:46:00;12.05;;;5.07;;
20306;SDS011;10312;52.434;13.206;2022-10-29T04:48:28;11.60;;;4.80;;
20306;SDS011;10312;52.434;13.206;2022-10-29T04:50:55;10.15;;;4.80;;
20306;SDS011;10312;52.434;13.206;2022-10-29T04:53:21;13.25;;;5.00;;
20306;SDS011;10312;52.434;13.206;2022-10-29T04:55:48;16.60;;;5.25;;
20306;SDS011;10312;52.434;13.206;2022-10-29T04:58:16;12.70;;;4.95;;
20306;SDS011;10312;52.434;13.206;2022-10-29T05:00:44;12.05;;;5.13;;
20306;SDS011;10312;52.434;13.206;2022-10-29T05:03:11;12.18;;;5.43;;
20306;SDS011;10312;52.434;13.206;2022-10-29T05:05:38;12.00;;;5.47;;
20306;SDS011;10312;52.434;13.206;2022-10-29T05:08:05;10.45;;;4.47;;
20306;SDS011;10312;52.434;13.206;2022-10-29T05:10:33;13.35;;;5.10;;
20306;SDS011;10312;52.434;13.206;2022-10-29T05:13:02;16.08;;;5.60;;
20306;SDS011;10312;52.434;13.206;2022-10-29T05:15:30;10.18;;;4.72;;
20306;SDS011;10312;52.434;13.206;2022-10-29T05:17:57;12.88;;;4.85;;
20306;SDS011;10312;52.434;13.206;2022-10-29T05:20:24;12.90;;;5.32;;
20306;SDS011;10312;52.434;13.206;2022-10-29T05:23:05;15.15;;;5.15;;
20306;SDS011;10312;52.434;13.206;2022-10-29T05:25:34;11.27;;;4.75;;
20306;SDS011;10312;52.434;13.206;2022-10-29T05:28:02;13.20;;;4.22;;
20306;SDS011;10312;52.434;13.206;2022-10-29T05:30:30;16.08;;;5.57;;
20306;SDS011;10312;52.434;13.206;2022-10-29T05:32:57;12.50;;;5.10;;
20306;SDS011;10312;52.434;13.206;2022-10-29T05:35:24;10.88;;;4.65;;
20306;SDS011;10312;52.434;13.206;2022-10-29T05:37:52;14.45;;;4.95;;
20306;SDS011;10312;52.434;13.206;2022-10-29T05:40:20;13.30;;;5.45;;
20306;SDS011;10312;52.434;13.206;2022-10-29T05:42:47;18.92;;;5.40;;
20306;SDS011;10312;52.434;13.206;2022-10-29T05:45:13;18.30;;;5.10;;
20306;SDS011;10312;52.434;13.206;2022-10-29T05:47:40;11.80;;;4.97;;
20306;SDS011;10312;52.434;13.206;2022-10-29T05:50:07;14.57;;;4.97;;
20306;SDS011;10312;52.434;13.206;2022-10-29T05:52:34;12.43;;;4.63;;
20306;SDS011;10312;52.434;13.206;2022-10-29T05:55:01;10.65;;;4.93;;
20306;SDS011;10312;52.434;13.206;2022-10-29T05:57:28;11.50;;;5.05;;
20306;SDS011;10312;52.434;13.206;2022-10-29T05:59:55;12.57;;;4.97;;
20306;SDS011;10312;52.434;13.206;2022-10-29T06:02:21;13.23;;;5.20;;
20306;SDS011;10312;52.434;13.206;2022-10-29T06:04:48;13.68;;;4.78;;
20306;SDS011;10312;52.434;13.206;2022-10-29T06:07:15;11.38;;;4.53;;
20306;SDS011;10312;52.434;13.206;2022-10-29T06:09:41;8.77;;;4.13;;
20306;SDS011;10312;52.434;13.206;2022-10-29T06:12:08;11.38;;;4.80;;
20306;SDS011;10312;52.434;13.206;2022-10-29T06:14:35;11.68;;;5.32;;
20306;SDS011;10312;52.434;13.206;2022-10-29T06:17:01;10.75;;;5.20;;
20306;SDS011;10312;52.434;13.206;2022-10-29T06:19:28;9.73;;;4.57;;
20306;SDS011;10312;52.434;13.206;2022-10-29T06:21:55;11.05;;;4.55;;
20306;SDS011;10312;52.434;13.206;2022-10-29T06:24:25;12.20;;;4.38;;
20306;SDS011;10312;52.434;13.206;2022-10-29T06:26:52;11.00;;;5.13;;
20306;SDS011;10312;52.434;13.206;2022-10-29T06:29:19;13.10;;;4.88;;
20306;SDS011;10312;52.434;13.206;2022-10-29T06:31:46;12.82;;;4.75;;
20306;SDS011;10312;52.434;13.206;2022-10-29T06:34:13;12.20;;;4.93;;
20306;SDS011;10312;52.434;13.206;2022-10-29T06:36:40;12.43;;;4.88;;
20306;SDS011;10312;52.434;13.206;2022-10-29T06:39:07;13.63;;;5.82;;
20306;SDS011;10312;52.434;13.206;2022-10-29T06:41:33;12.40;;;5.15;;
20306;SDS011;10312;52.434;13.206;2022-10-29T06:44:00;7.38;;;4.53;;
20306;SDS011;10312;52.434;13.206;2022-10-29T06:46:27;12.13;;;5.22;;
20306;SDS011;10312;52.434;13.206;2022-10-29T06:48:53;9.55;;;4.90;;
20306;SDS011;10312;52.434;13.206;2022-10-29T06:51:20;15.95;;;5.30;;
20306;SDS011;10312;52.434;13.206;2022-10-29T06:53:48;12.88;;;5.28;;
20306;SDS011;10312;52.434;13.206;2022-10-29T06:56:15;12.65;;;5.55;;
20306;SDS011;10312;52.434;13.206;2022-10-29T06:58:42;16.55;;;5.20;;
20306;SDS011;10312;52.434;13.206;2022-10-29T07:01:08;16.23;;;5.07;;
20306;SDS011;10312;52.434;13.206;2022-10-29T07:03:35;13.63;;;5.38;;
20306;SDS011;10312;52.434;13.206;2022-10-29T07:06:02;10.25;;;4.88;;
20306;SDS011;10312;52.434;13.206;2022-10-29T07:08:29;13.85;;;5.32;;
20306;SDS011;10312;52.434;13.206;2022-10-29T07:10:56;13.15;;;5.13;;
20306;SDS011;10312;52.434;13.206;2022-10-29T07:13:23;12.18;;;5.35;;
20306;SDS011;10312;52.434;13.206;2022-10-29T07:15:49;12.68;;;5.55;;
20306;SDS011;10312;52.434;13.206;2022-10-29T07:18:16;13.63;;;5.28;;
20306;SDS011;10312;52.434;13.206;2022-10-29T07:20:43;11.32;;;5.50;;
20306;SDS011;10312;52.434;13.206;2022-10-29T07:23:11;14.18;;;5.25;;
20306;SDS011;10312;52.434;13.206;2022-10-29T07:25:39;11.77;;;5.05;;
20306;SDS011;10312;52.434;13.206;2022-10-29T07:28:10;13.27;;;4.70;;
20306;SDS011;10312;52.434;13.206;2022-10-29T07:30:39;14.20;;;4.75;;
20306;SDS011;10312;52.434;13.206;2022-10-29T07:33:06;12.50;;;5.68;;
20306;SDS011;10312;52.434;13.206;2022-10-29T07:35:33;12.15;;;5.97;;
20306;SDS011;10312;52.434;13.206;2022-10-29T07:38:01;15.15;;;5.05;;
20306;SDS011;10312;52.434;13.206;2022-10-29T07:40:36;13.13;;;5.47;;
20306;SDS011;10312;52.434;13.206;2022-10-29T07:43:07;8.40;;;4.82;;
20306;SDS011;10312;52.434;13.206;2022-10-29T07:45:34;19.58;;;5.43;;
20306;SDS011;10312;52.434;13.206;2022-10-29T07:48:01;11.50;;;4.63;;
20306;SDS011;10312;52.434;13.206;2022-10-29T07:50:30;8.95;;;5.13;;
20306;SDS011;10312;52.434;13.206;2022-10-29T07:53:00;11.82;;;5.15;;
20306;SDS011;10312;52.434;13.206;2022-10-29T07:55:28;11.27;;;5.57;;
20306;SDS011;10312;52.434;13.206;2022-10-29T07:57:58;11.60;;;4.40;;
20306;SDS011;10312;52.434;13.206;2022-10-29T08:00:28;14.88;;;4.88;;
20306;SDS011;10312;52.434;13.206;2022-10-29T08:02:55;14.05;;;4.75;;
20306;SDS011;10312;52.434;13.206;2022-10-29T08:05:23;9.82;;;4.68;;
20306;SDS011;10312;52.434;13.206;2022-10-29T08:07:54;11.48;;;4.80;;
20306;SDS011;10312;52.434;13.206;2022-10-29T08:10:24;13.18;;;4.70;;
20306;SDS011;10312;52.434;13.206;2022-10-29T08:12:52;12.45;;;4.80;;
20306;SDS011;10312;52.434;13.206;2022-10-29T08:15:21;11.80;;;4.50;;
20306;SDS011;10312;52.434;13.206;2022-10-29T08:17:48;12.82;;;4.43;;
20306;SDS011;10312;52.434;13.206;2022-10-29T08:20:15;15.70;;;5.22;;
20306;SDS011;10312;52.434;13.206;2022-10-29T08:22:42;10.05;;;3.90;;
20306;SDS011;10312;52.434;13.206;2022-10-29T08:25:10;9.60;;;4.35;;
20306;SDS011;10312;52.434;13.206;2022-10-29T08:27:37;14.55;;;4.22;;
20306;SDS011;10312;52.434;13.206;2022-10-29T08:30:08;14.70;;;4.28;;
20306;SDS011;10312;52.434;13.206;2022-10-29T08:32:36;17.48;;;4.82;;
20306;SDS011;10312;52.434;13.206;2022-10-29T08:35:02;12.43;;;4.30;;
20306;SDS011;10312;52.434;13.206;2022-10-29T08:37:31;10.57;;;4.22;;
20306;SDS011;10312;52.434;13.206;2022-10-29T08:39:58;16.40;;;4.30;;
20306;SDS011;10312;52.434;13.206;2022-10-29T08:45:21;13.48;;;5.07;;
20306;SDS011;10312;52.434;13.206;2022-10-29T08:50:49;12.32;;;4.47;;
20306;SDS011;10312;52.434;13.206;2022-10-29T08:53:23;13.88;;;4.45;;
20306;SDS011;10312;52.434;13.206;2022-10-29T08:55:58;13.55;;;3.55;;
20306;SDS011;10312;52.434;13.206;2022-10-29T08:58:33;15.90;;;4.78;;
20306;SDS011;10312;52.434;13.206;2022-10-29T09:01:06;10.20;;;3.78;;
20306;SDS011;10312;52.434;13.206;2022-10-29T09:03:35;12.40;;;4.05;;
20306;SDS011;10312;52.434;13.206;2022-10-29T09:06:12;11.57;;;4.60;;
20306;SDS011;10312;52.434;13.206;2022-10-29T09:17:22;12.27;;;4.85;;
20306;SDS011;10312;52.434;13.206;2022-10-29T09:25:58;13.73;;;3.90;;
20306;SDS011;10312;52.434;13.206;2022-10-29T09:34:04;13.93;;;3.42;;
20306;SDS011;10312;52.434;13.206;2022-10-29T09:36:37;9.50;;;3.50;;
20306;SDS011;10312;52.434;13.206;2022-10-29T09:39:11;14.82;;;4.28;;
20306;SDS011;10312;52.434;13.206;2022-10-29T09:41:40;11.57;;;3.80;;
20306;SDS011;10312;52.434;13.206;2022-10-29T09:46:52;9.30;;;3.72;;
20306;SDS011;10312;52.434;13.206;2022-10-29T09:52:21;11.45;;;3.15;;
20306;SDS011;10312;52.434;13.206;2022-10-29T09:54:50;11.18;;;3.80;;
20306;SDS011;10312;52.434;13.206;2022-10-29T09:57:21;11.50;;;3.80;;
20306;SDS011;10312;52.434;13.206;2022-10-29T09:59:52;11.32;;;3.33;;
20306;SDS011;10312;52.434;13.206;2022-10-29T10:02:23;9.98;;;2.88;;
20306;SDS011;10312;52.434;13.206;2022-10-29T10:05:26;12.15;;;3.60;;
20306;SDS011;10312;52.434;13.206;2022-10-29T10:08:05;12.90;;;3.60;;
20306;SDS011;10312;52.434;13.206;2022-10-29T10:13:16;14.68;;;3.67;;
20306;SDS011;10312;52.434;13.206;2022-10-29T10:15:49;10.93;;;4.30;;
20306;SDS011;10312;52.434;13.206;2022-10-29T10:18:25;9.75;;;3.38;;
20306;SDS011;10312;52.434;13.206;2022-10-29T10:21:07;11.25;;;3.40;;
20306;SDS011;10312;52.434;13.206;2022-10-29T10:23:38;10.55;;;3.15;;
20306;SDS011;10312;52.434;13.206;2022-10-29T10:29:16;10.57;;;3.25;;
20306;SDS011;10312;52.434;13.206;2022-10-29T10:34:26;10.75;;;3.40;;
20306;SDS011;10312;52.434;13.206;2022-10-29T10:37:03;13.18;;;4.07;;
20306;SDS011;10312;52.434;13.206;2022-10-29T10:39:33;14.40;;;4.10;;
20306;SDS011;10312;52.434;13.206;2022-10-29T10:42:03;16.98;;;4.03;;
20306;SDS011;10312;52.434;13.206;2022-10-29T10:44:31;7.68;;;3.17;;
20306;SDS011;10312;52.434;13.206;2022-10-29T10:46:59;12.48;;;3.97;;
20306;SDS011;10312;52.434;13.206;2022-10-29T10:49:31;9.38;;;3.55;;
20306;SDS011;10312;52.434;13.206;2022-10-29T10:52:00;8.30;;;3.22;;
20306;SDS011;10312;52.434;13.206;2022-10-29T10:54:37;10.15;;;3.85;;
20306;SDS011;10312;52.434;13.206;2022-10-29T10:59:46;15.00;;;4.32;;
20306;SDS011;10312;52.434;13.206;2022-10-29T11:02:23;15.75;;;4.30;;
20306;SDS011;10312;52.434;13.206;2022-10-29T11:04:55;10.02;;;3.50;;
20306;SDS011;10312;52.434;13.206;2022-10-29T11:07:30;13.02;;;3.80;;
20306;SDS011;10312;52.434;13.206;2022-10-29T11:09:59;11.65;;;3.83;;
20306;SDS011;10312;52.434;13.206;2022-10-29T11:12:30;14.25;;;4.25;;
20306;SDS011;10312;52.434;13.206;2022-10-29T11:14:58;10.60;;;4.40;;
20306;SDS011;10312;52.434;13.206;2022-10-29T11:17:53;11.20;;;4.35;;
20306;SDS011;10312;52.434;13.206;2022-10-29T11:20:30;11.80;;;4.50;;
20306;SDS011;10312;52.434;13.206;2022-10-29T11:28:52;18.98;;;4.78;;
20306;SDS011;10312;52.434;13.206;2022-10-29T11:31:28;12.52;;;4.65;;
20306;SDS011;10312;52.434;13.206;2022-10-29T11:34:03;8.85;;;4.35;;
20306;SDS011;10312;52.434;13.206;2022-10-29T11:36:39;10.00;;;3.90;;
20306;SDS011;10312;52.434;13.206;2022-10-29T11:42:01;12.43;;;3.90;;
20306;SDS011;10312;52.434;13.206;2022-10-29T11:44:28;16.40;;;4.50;;
20306;SDS011;10312;52.434;13.206;2022-10-29T11:47:04;9.60;;;4.50;;
20306;SDS011;10312;52.434;13.206;2022-10-29T11:52:14;16.15;;;4.85;;
20306;SDS011;10312;52.434;13.206;2022-10-29T11:54:50;9.88;;;4.57;;
20306;SDS011;10312;52.434;13.206;2022-10-29T11:57:24;12.13;;;4.78;;
20306;SDS011;10312;52.434;13.206;2022-10-29T12:05:17;17.75;;;5.70;;
20306;SDS011;10312;52.434;13.206;2022-10-29T12:10:53;12.75;;;5.00;;
20306;SDS011;10312;52.434;13.206;2022-10-29T12:16:35;19.05;;;5.47;;
20306;SDS011;10312;52.434;13.206;2022-10-29T12:24:45;11.57;;;4.50;;
20306;SDS011;10312;52.434;13.206;2022-10-29T12:27:28;13.40;;;4.70;;
20306;SDS011;10312;52.434;13.206;2022-10-29T12:29:57;16.17;;;5.13;;
20306;SDS011;10312;52.434;13.206;2022-10-29T12:32:32;10.45;;;4.50;;
20306;SDS011;10312;52.434;13.206;2022-10-29T12:38:17;10.40;;;4.63;;
20306;SDS011;10312;52.434;13.206;2022-10-29T12:41:07;13.77;;;5.05;;
20306;SDS011;10312;52.434;13.206;2022-10-29T12:43:38;14.40;;;4.75;;
20306;SDS011;10312;52.434;13.206;2022-10-29T12:46:13;14.32;;;4.78;;
20306;SDS011;10312;52.434;13.206;2022-10-29T12:51:55;12.73;;;4.18;;
20306;SDS011;10312;52.434;13.206;2022-10-29T12:56:51;14.80;;;4.35;;
20306;SDS011;10312;52.434;13.206;2022-10-29T12:59:34;16.90;;;5.18;;
20306;SDS011;10312;52.434;13.206;2022-10-29T13:13:03;10.50;;;4.18;;
20306;SDS011;10312;52.434;13.206;2022-10-29T13:20:54;14.15;;;4.68;;
20306;SDS011;10312;52.434;13.206;2022-10-29T13:25:49;17.27;;;4.20;;
20306;SDS011;10312;52.434;13.206;2022-10-29T13:30:46;12.90;;;4.90;;
20306;SDS011;10312;52.434;13.206;2022-10-29T13:35:45;13.13;;;4.28;;
20306;SDS011;10312;52.434;13.206;2022-10-29T13:38:38;9.40;;;4.20;;
20306;SDS011;10312;52.434;13.206;2022-10-29T13:41:36;13.48;;;4.97;;
20306;SDS011;10312;52.434;13.206;2022-10-29T13:46:53;14.50;;;4.38;;
20306;SDS011;10312;52.434;13.206;2022-10-29T13:49:26;11.38;;;4.90;;
20306;SDS011;10312;52.434;13.206;2022-10-29T13:52:00;13.68;;;5.18;;
20306;SDS011;10312;52.434;13.206;2022-10-29T13:59:40;8.68;;;4.05;;
20306;SDS011;10312;52.434;13.206;2022-10-29T14:02:20;15.00;;;4.88;;
20306;SDS011;10312;52.434;13.206;2022-10-29T14:04:53;12.40;;;5.43;;
20306;SDS011;10312;52.434;13.206;2022-10-29T14:07:23;10.30;;;4.30;;
20306;SDS011;10312;52.434;13.206;2022-10-29T14:09:56;12.30;;;4.70;;
20306;SDS011;10312;52.434;13.206;2022-10-29T14:12:29;13.07;;;5.25;;
20306;SDS011;10312;52.434;13.206;2022-10-29T14:15:04;13.20;;;4.85;;
20306;SDS011;10312;52.434;13.206;2022-10-29T14:17:36;12.38;;;5.43;;
20306;SDS011;10312;52.434;13.206;2022-10-29T14:20:03;20.98;;;5.40;;
20306;SDS011;10312;52.434;13.206;2022-10-29T14:22:36;15.82;;;5.32;;
20306;SDS011;10312;52.434;13.206;2022-10-29T14:30:58;12.38;;;5.40;;
20306;SDS011;10312;52.434;13.206;2022-10-29T14:33:26;14.13;;;4.70;;
20306;SDS011;10312;52.434;13.206;2022-10-29T14:38:47;14.77;;;5.55;;
20306;SDS011;10312;52.434;13.206;2022-10-29T14:41:16;11.05;;;4.80;;
20306;SDS011;10312;52.434;13.206;2022-10-29T14:43:44;12.70;;;5.20;;
20306;SDS011;10312;52.434;13.206;2022-10-29T14:46:27;17.20;;;5.55;;
20306;SDS011;10312;52.434;13.206;2022-10-29T14:49:38;17.83;;;5.00;;
20306;SDS011;10312;52.434;13.206;2022-10-29T14:51:47;13.90;;;4.97;;
20306;SDS011;10312;52.434;13.206;2022-10-29T14:54:18;14.05;;;5.25;;
20306;SDS011;10312;52.434;13.206;2022-10-29T14:56:48;17.40;;;5.53;;
20306;SDS011;10312;52.434;13.206;2022-10-29T14:59:17;15.07;;;5.60;;
20306;SDS011;10312;52.434;13.206;2022-10-29T15:01:49;13.82;;;5.15;;
20306;SDS011;10312;52.434;13.206;2022-10-29T15:04:29;11.27;;;5.47;;
20306;SDS011;10312;52.434;13.206;2022-10-29T15:09:47;12.93;;;5.38;;
20306;SDS011;10312;52.434;13.206;2022-10-29T15:14:52;14.32;;;5.15;;
20306;SDS011;10312;52.434;13.206;2022-10-29T15:17:20;12.52;;;5.35;;
20306;SDS011;10312;52.434;13.206;2022-10-29T15:19:58;12.18;;;5.30;;
20306;SDS011;10312;52.434;13.206;2022-10-29T15:22:31;13.63;;;4.90;;
20306;SDS011;10312;52.434;13.206;2022-10-29T15:25:01;13.80;;;4.80;;
20306;SDS011;10312;52.434;13.206;2022-10-29T15:27:30;13.40;;;5.18;;
20306;SDS011;10312;52.434;13.206;2022-10-29T15:29:57;11.25;;;5.50;;
20306;SDS011;10312;52.434;13.206;2022-10-29T15:32:25;11.07;;;5.43;;
20306;SDS011;10312;52.434;13.206;2022-10-29T15:34:56;14.18;;;6.10;;
20306;SDS011;10312;52.434;13.206;2022-10-29T15:37:25;13.55;;;5.53;;
20306;SDS011;10312;52.434;13.206;2022-10-29T15:40:24;14.77;;;6.30;;
20306;SDS011;10312;52.434;13.206;2022-10-29T15:42:51;13.63;;;5.40;;
20306;SDS011;10312;52.434;13.206;2022-10-29T15:45:21;19.02;;;5.63;;
20306;SDS011;10312;52.434;13.206;2022-10-29T15:50:33;12.48;;;6.38;;
20306;SDS011;10312;52.434;13.206;2022-10-29T15:53:03;13.55;;;5.90;;
20306;SDS011;10312;52.434;13.206;2022-10-29T15:55:33;16.55;;;6.63;;
20306;SDS011;10312;52.434;13.206;2022-10-29T15:58:01;18.27;;;6.10;;
20306;SDS011;10312;52.434;13.206;2022-10-29T16:00:30;15.52;;;6.55;;
20306;SDS011;10312;52.434;13.206;2022-10-29T16:05:39;13.43;;;6.47;;
20306;SDS011;10312;52.434;13.206;2022-10-29T16:08:08;19.08;;;6.28;;
20306;SDS011;10312;52.434;13.206;2022-10-29T16:10:43;9.35;;;5.55;;
20306;SDS011;10312;52.434;13.206;2022-10-29T16:13:09;12.60;;;6.13;;
20306;SDS011;10312;52.434;13.206;2022-10-29T16:15:36;13.60;;;6.20;;
20306;SDS011;10312;52.434;13.206;2022-10-29T16:18:09;13.50;;;6.78;;
20306;SDS011;10312;52.434;13.206;2022-10-29T16:20:36;16.92;;;6.20;;
20306;SDS011;10312;52.434;13.206;2022-10-29T16:23:02;11.05;;;6.53;;
20306;SDS011;10312;52.434;13.206;2022-10-29T16:25:29;17.45;;;6.65;;
20306;SDS011;10312;52.434;13.206;2022-10-29T16:27:56;13.30;;;6.72;;
20306;SDS011;10312;52.434;13.206;2022-10-29T16:30:23;15.85;;;7.30;;
20306;SDS011;10312;52.434;13.206;2022-10-29T16:32:50;18.67;;;7.40;;
20306;SDS011;10312;52.434;13.206;2022-10-29T16:35:21;18.42;;;7.00;;
20306;SDS011;10312;52.434;13.206;2022-10-29T16:37:49;19.30;;;6.95;;
20306;SDS011;10312;52.434;13.206;2022-10-29T16:40:18;20.30;;;7.50;;
20306;SDS011;10312;52.434;13.206;2022-10-29T16:42:45;14.00;;;7.20;;
20306;SDS011;10312;52.434;13.206;2022-10-29T16:45:14;15.25;;;6.75;;
20306;SDS011;10312;52.434;13.206;2022-10-29T16:47:42;14.60;;;7.53;;
20306;SDS011;10312;52.434;13.206;2022-10-29T16:50:13;18.70;;;7.90;;
20306;SDS011;10312;52.434;13.206;2022-10-29T16:52:41;12.82;;;6.57;;
20306;SDS011;10312;52.434;13.206;2022-10-29T16:55:08;16.75;;;7.10;;
20306;SDS011;10312;52.434;13.206;2022-10-29T16:57:36;13.43;;;6.68;;
20306;SDS011;10312;52.434;13.206;2022-10-29T17:00:03;15.82;;;6.90;;
20306;SDS011;10312;52.434;13.206;2022-10-29T17:02:31;13.35;;;6.53;;
20306;SDS011;10312;52.434;13.206;2022-10-29T17:04:58;15.27;;;7.32;;
20306;SDS011;10312;52.434;13.206;2022-10-29T17:07:25;15.80;;;6.95;;
20306;SDS011;10312;52.434;13.206;2022-10-29T17:09:51;17.08;;;7.63;;
20306;SDS011;10312;52.434;13.206;2022-10-29T17:12:18;15.57;;;7.75;;
20306;SDS011;10312;52.434;13.206;2022-10-29T17:14:45;18.23;;;7.72;;
20306;SDS011;10312;52.434;13.206;2022-10-29T17:17:11;18.52;;;7.32;;
20306;SDS011;10312;52.434;13.206;2022-10-29T17:19:38;17.48;;;7.13;;
20306;SDS011;10312;52.434;13.206;2022-10-29T17:22:05;14.00;;;6.75;;
20306;SDS011;10312;52.434;13.206;2022-10-29T17:24:35;14.30;;;7.30;;